Time;durP1;ratioP1;P1;durP2;ratioP2;P2;SDS_P1;SDS_P2;PMS_P1;PMS_P2;Temp;Humidity;BMP_temperature;BMP_pressure;BME280_temperature;BME280_humidity;BME280_pressure;Samples;Min_cycle;Max_cycle;Signal;HPM_P1;HPM_P2
2023/05/20 00:01:14;;;;;;;3.20;2.60;;;10.80;99.90;;;;;;5050055;28;20207;-77
2023/05/20 00:03:41;;;;;;;5.87;2.90;;;10.70;99.90;;;;;;5042801;28;20226;-77
2023/05/20 00:06:09;;;;;;;5.60;2.90;;;10.60;99.90;;;;;;5038812;28;20213;-79
2023/05/20 00:08:37;;;;;;;5.17;2.73;;;10.70;99.90;;;;;;5050984;27;20199;-80
2023/05/20 00:11:04;;;;;;;3.13;2.50;;;10.80;99.90;;;;;;5033244;28;20672;-80
2023/05/20 00:13:31;;;;;;;3.83;2.60;;;10.60;99.90;;;;;;5044379;28;20219;-78
2023/05/20 00:15:57;;;;;;;6.53;3.47;;;10.60;99.90;;;;;;5045871;28;20750;-79
2023/05/20 00:18:24;;;;;;;3.63;2.80;;;10.70;99.90;;;;;;5049782;28;20241;-80
2023/05/20 00:20:52;;;;;;;4.00;2.80;;;10.80;99.90;;;;;;5045799;28;20574;-78
2023/05/20 00:23:19;;;;;;;3.47;2.63;;;10.80;99.90;;;;;;5041546;28;20227;-79
2023/05/20 00:25:49;;;;;;;3.70;2.80;;;10.50;99.90;;;;;;5046946;28;20196;-79
2023/05/20 00:28:16;;;;;;;3.50;2.57;;;10.30;99.90;;;;;;5050435;28;20203;-76
2023/05/20 00:30:43;;;;;;;3.60;2.60;;;10.30;99.90;;;;;;5041342;28;20674;-80
2023/05/20 00:33:09;;;;;;;4.53;2.60;;;10.30;99.90;;;;;;5035739;28;20235;-76
2023/05/20 00:35:36;;;;;;;4.43;2.60;;;10.30;99.90;;;;;;5048160;28;20672;-79
2023/05/20 00:38:03;;;;;;;3.07;2.50;;;10.40;99.90;;;;;;5048442;28;20680;-79
2023/05/20 00:40:30;;;;;;;3.30;2.60;;;10.50;99.90;;;;;;5037992;28;20228;-77
2023/05/20 00:42:58;;;;;;;2.53;2.17;;;10.40;99.90;;;;;;5037183;28;20285;-79
2023/05/20 00:45:25;;;;;;;4.10;2.53;;;10.00;99.90;;;;;;5038713;28;20199;-78
2023/05/20 00:47:52;;;;;;;3.23;2.67;;;9.70;99.90;;;;;;5054135;28;20195;-78
2023/05/20 00:50:19;;;;;;;5.50;3.00;;;10.10;99.90;;;;;;5045238;28;20195;-77
2023/05/20 00:52:47;;;;;;;4.43;2.67;;;10.00;99.90;;;;;;5054928;28;20196;-80
2023/05/20 00:55:14;;;;;;;4.47;3.00;;;10.20;99.90;;;;;;5053908;28;20570;-80
2023/05/20 00:57:41;;;;;;;3.60;2.50;;;10.20;99.90;;;;;;5057570;28;20207;-77
2023/05/20 01:00:10;;;;;;;3.03;2.40;;;10.30;99.90;;;;;;5048814;28;20227;-80
2023/05/20 01:02:37;;;;;;;3.20;2.60;;;10.30;99.90;;;;;;5053945;27;20195;-78
2023/05/20 01:05:04;;;;;;;3.60;3.00;;;9.90;99.90;;;;;;5051578;28;20204;-77
2023/05/20 01:07:33;;;;;;;3.20;2.80;;;9.60;99.90;;;;;;5050788;28;20204;-76
2023/05/20 01:10:00;;;;;;;4.83;2.97;;;9.60;99.90;;;;;;5050707;28;20200;-77
2023/05/20 01:12:31;;;;;;;4.53;2.77;;;10.00;99.90;;;;;;5048646;28;20204;-76
2023/05/20 01:15:02;;;;;;;2.87;2.53;;;10.10;99.90;;;;;;5037905;28;20207;-80
2023/05/20 01:17:32;;;;;;;3.07;2.50;;;10.40;99.90;;;;;;5053837;28;20205;-79
2023/05/20 01:20:00;;;;;;;3.17;2.67;;;10.40;99.90;;;;;;5051748;28;20678;-80
2023/05/20 01:22:28;;;;;;;3.73;2.50;;;10.40;99.90;;;;;;5055281;27;20557;-79
2023/05/20 01:24:56;;;;;;;3.50;2.90;;;9.70;99.90;;;;;;5044061;28;20204;-79
2023/05/20 01:27:23;;;;;;;7.87;2.97;;;9.30;99.90;;;;;;5051707;28;20643;-77
2023/05/20 01:29:51;;;;;;;3.97;2.90;;;9.70;99.90;;;;;;5055775;28;20207;-76
2023/05/20 01:32:20;;;;;;;5.20;2.93;;;9.90;99.90;;;;;;5048886;28;20210;-77
2023/05/20 01:34:49;;;;;;;5.20;2.93;;;10.00;99.90;;;;;;5046106;28;20218;-77
2023/05/20 01:37:18;;;;;;;3.93;3.03;;;10.10;99.90;;;;;;5046097;28;20238;-76
2023/05/20 01:39:49;;;;;;;3.77;2.87;;;10.20;99.90;;;;;;5054768;28;20219;-77
2023/05/20 01:42:17;;;;;;;4.67;2.83;;;10.10;99.90;;;;;;5056359;28;20195;-77
2023/05/20 01:44:43;;;;;;;4.57;3.07;;;9.90;99.90;;;;;;5045791;28;20623;-79
2023/05/20 01:47:10;;;;;;;5.33;2.87;;;9.90;99.90;;;;;;5054743;28;20217;-78
2023/05/20 01:49:40;;;;;;;3.50;2.63;;;10.00;99.90;;;;;;5034293;28;20680;-78
2023/05/20 01:52:07;;;;;;;3.13;2.60;;;9.80;99.90;;;;;;5050155;28;20560;-75
2023/05/20 01:54:34;;;;;;;6.53;3.87;;;9.70;99.90;;;;;;5053531;28;20231;-78
2023/05/20 01:57:02;;;;;;;5.27;3.23;;;9.70;99.90;;;;;;5049788;28;20203;-77
2023/05/20 01:59:29;;;;;;;4.20;2.70;;;9.70;99.90;;;;;;5048495;28;20224;-78
2023/05/20 02:01:55;;;;;;;3.57;3.27;;;9.70;99.90;;;;;;5050101;28;20207;-77
2023/05/20 02:04:22;;;;;;;4.03;2.77;;;9.60;99.90;;;;;;5054458;28;20225;-76
2023/05/20 02:06:49;;;;;;;5.77;3.53;;;9.70;99.90;;;;;;5055108;28;20211;-79
2023/05/20 02:09:15;;;;;;;5.47;3.27;;;9.40;99.90;;;;;;5048072;28;20209;-77
2023/05/20 02:11:42;;;;;;;4.27;3.03;;;9.30;99.90;;;;;;5055228;28;20285;-77
2023/05/20 02:14:10;;;;;;;4.20;2.97;;;9.30;99.90;;;;;;5038373;28;20235;-78
2023/05/20 02:16:38;;;;;;;4.87;2.93;;;9.40;99.90;;;;;;5044149;28;20269;-78
2023/05/20 02:19:11;;;;;;;5.07;3.07;;;9.50;99.90;;;;;;5052960;28;20219;-79
2023/05/20 02:21:38;;;;;;;4.13;2.77;;;9.60;99.90;;;;;;5054485;27;20209;-76
2023/05/20 02:24:06;;;;;;;6.17;3.13;;;9.60;99.90;;;;;;5044346;28;20587;-78
2023/05/20 02:26:33;;;;;;;4.20;3.17;;;9.70;99.90;;;;;;5035263;28;20653;-77
2023/05/20 02:29:00;;;;;;;4.60;3.40;;;9.70;99.90;;;;;;5042149;28;20207;-78
2023/05/20 02:31:28;;;;;;;4.10;3.30;;;9.70;99.90;;;;;;5047795;28;20650;-76
2023/05/20 02:33:54;;;;;;;4.97;3.63;;;9.80;99.90;;;;;;5052276;28;20222;-76
2023/05/20 02:36:21;;;;;;;4.10;3.13;;;9.90;99.90;;;;;;5044519;28;20206;-79
2023/05/20 02:38:48;;;;;;;3.70;3.10;;;9.90;99.90;;;;;;5045300;28;20202;-79
2023/05/20 02:41:15;;;;;;;3.73;2.90;;;9.90;99.90;;;;;;5054210;28;20301;-76
2023/05/20 02:43:43;;;;;;;4.63;3.40;;;9.90;99.90;;;;;;5043326;28;20223;-78
2023/05/20 02:46:10;;;;;;;5.43;3.23;;;10.10;99.90;;;;;;5046892;27;20588;-78
2023/05/20 02:48:38;;;;;;;5.17;3.33;;;10.10;99.90;;;;;;5041355;28;20225;-77
2023/05/20 02:51:05;;;;;;;5.03;3.00;;;10.20;99.90;;;;;;5045271;28;20552;-77
2023/05/20 02:53:32;;;;;;;5.87;3.30;;;10.10;99.90;;;;;;5047014;28;20224;-78
2023/05/20 02:56:00;;;;;;;4.93;3.17;;;10.10;99.90;;;;;;5054386;28;20195;-77
2023/05/20 02:58:28;;;;;;;5.43;3.27;;;10.00;99.90;;;;;;5093446;27;20879;-79
2023/05/20 03:00:56;;;;;;;5.23;3.30;;;10.00;99.90;;;;;;5046914;28;20593;-78
2023/05/20 03:03:25;;;;;;;3.40;3.07;;;10.00;99.90;;;;;;5041423;28;20220;-78
2023/05/20 03:05:54;;;;;;;8.67;3.30;;;10.10;99.90;;;;;;5045354;28;20576;-77
2023/05/20 03:08:22;;;;;;;3.90;2.97;;;10.10;99.90;;;;;;5050508;28;20204;-76
2023/05/20 03:10:49;;;;;;;5.40;3.43;;;10.10;99.90;;;;;;5053415;28;20191;-78
2023/05/20 03:13:16;;;;;;;5.40;3.07;;;10.00;99.90;;;;;;5054873;28;20229;-79
2023/05/20 03:15:44;;;;;;;4.90;3.50;;;10.00;99.90;;;;;;5052413;28;20199;-78
2023/05/20 03:18:11;;;;;;;14.80;3.47;;;9.90;99.90;;;;;;5052313;27;20680;-79
2023/05/20 03:20:38;;;;;;;4.40;3.33;;;10.00;99.90;;;;;;5046534;28;20298;-79
2023/05/20 03:23:09;;;;;;;6.20;3.20;;;10.00;99.90;;;;;;5045381;27;20215;-79
2023/05/20 03:25:37;;;;;;;4.27;3.20;;;10.00;99.90;;;;;;5041790;28;20187;-78
2023/05/20 03:28:05;;;;;;;4.77;3.37;;;10.10;99.90;;;;;;5053695;28;20199;-78
2023/05/20 03:30:32;;;;;;;7.27;3.13;;;10.00;99.90;;;;;;5047558;27;20200;-78
2023/05/20 03:33:01;;;;;;;6.00;3.40;;;10.10;99.90;;;;;;5051753;28;20245;-76
2023/05/20 03:35:28;;;;;;;4.97;3.63;;;10.20;99.90;;;;;;5046217;27;20663;-78
2023/05/20 03:37:55;;;;;;;5.87;3.37;;;10.10;99.90;;;;;;5043669;28;20229;-77
2023/05/20 03:40:23;;;;;;;5.63;3.17;;;10.10;99.90;;;;;;5042867;28;20657;-77
2023/05/20 03:42:50;;;;;;;4.53;3.30;;;10.20;99.90;;;;;;5073201;27;20227;-78
2023/05/20 03:45:17;;;;;;;4.53;3.20;;;10.20;99.90;;;;;;5047641;27;20241;-76
2023/05/20 03:47:44;;;;;;;5.17;3.30;;;10.30;99.90;;;;;;5052024;28;20208;-78
2023/05/20 03:50:11;;;;;;;4.97;3.07;;;10.30;99.90;;;;;;5050372;28;20235;-78
2023/05/20 03:52:39;;;;;;;5.37;3.03;;;10.30;99.90;;;;;;5082548;27;20214;-78
2023/05/20 03:55:07;;;;;;;4.03;3.17;;;10.30;99.90;;;;;;5052262;27;20270;-78
2023/05/20 03:57:36;;;;;;;5.33;3.17;;;10.40;99.90;;;;;;5048194;28;20206;-75
2023/05/20 04:00:08;;;;;;;4.93;3.83;;;10.40;99.90;;;;;;5052438;28;20250;-76
2023/05/20 04:02:35;;;;;;;5.43;2.90;;;10.30;99.90;;;;;;5045638;28;20248;-77
2023/05/20 04:05:02;;;;;;;4.70;3.10;;;10.40;99.90;;;;;;5041810;28;20227;-77
2023/05/20 04:07:29;;;;;;;4.50;2.97;;;10.40;99.90;;;;;;5046448;28;20199;-79
2023/05/20 04:09:58;;;;;;;4.37;2.73;;;10.40;99.90;;;;;;5068443;27;20659;-77
2023/05/20 04:12:29;;;;;;;3.47;3.03;;;10.40;99.90;;;;;;5051547;27;20264;-76
2023/05/20 04:14:59;;;;;;;4.67;2.87;;;10.30;99.90;;;;;;5051477;27;20244;-79
2023/05/20 04:17:27;;;;;;;5.90;3.00;;;10.30;99.90;;;;;;5050576;27;20211;-78
2023/05/20 04:19:53;;;;;;;5.27;3.10;;;10.30;99.90;;;;;;5042298;28;20223;-79
2023/05/20 04:22:20;;;;;;;4.90;3.23;;;10.40;99.90;;;;;;5052588;28;20494;-79
2023/05/20 04:24:47;;;;;;;5.40;2.93;;;10.30;99.90;;;;;;5050106;28;20215;-79
2023/05/20 04:27:15;;;;;;;5.33;3.00;;;10.30;99.90;;;;;;5046111;28;20235;-78
2023/05/20 04:29:44;;;;;;;4.70;3.07;;;10.30;99.90;;;;;;5049433;27;20200;-78
2023/05/20 04:32:14;;;;;;;5.87;3.33;;;10.40;99.90;;;;;;5051249;28;20207;-78
2023/05/20 04:34:41;;;;;;;4.77;3.60;;;10.50;99.90;;;;;;5050594;27;20230;-78
2023/05/20 04:37:09;;;;;;;4.47;3.17;;;10.50;99.90;;;;;;5074044;27;20217;-79
2023/05/20 04:39:35;;;;;;;3.90;3.03;;;10.50;99.90;;;;;;5050384;28;20210;-78
2023/05/20 04:42:03;;;;;;;7.87;3.53;;;10.50;99.90;;;;;;5050619;28;20199;-79
2023/05/20 04:44:30;;;;;;;4.93;3.20;;;10.60;99.90;;;;;;5048643;28;20229;-77
2023/05/20 04:46:58;;;;;;;6.03;3.20;;;10.70;99.90;;;;;;5047351;28;20207;-80
2023/05/20 04:49:27;;;;;;;5.10;3.40;;;10.60;99.90;;;;;;5046775;28;20291;-78
2023/05/20 04:51:55;;;;;;;4.50;3.23;;;10.60;99.90;;;;;;5046417;28;20211;-79
2023/05/20 04:54:22;;;;;;;4.80;3.53;;;10.70;99.90;;;;;;5050830;28;20268;-79
2023/05/20 04:56:49;;;;;;;4.50;3.20;;;10.80;99.90;;;;;;5041767;28;20267;-79
2023/05/20 04:59:16;;;;;;;4.30;3.60;;;10.80;99.90;;;;;;5047225;28;20239;-78
2023/05/20 05:01:43;;;;;;;5.37;3.63;;;11.00;99.90;;;;;;5042093;28;20214;-80
2023/05/20 05:04:10;;;;;;;5.93;3.30;;;10.90;99.90;;;;;;5051519;28;20930;-80
2023/05/20 05:06:38;;;;;;;6.33;3.40;;;11.00;99.90;;;;;;5036547;28;20261;-80
2023/05/20 05:09:05;;;;;;;5.50;3.70;;;11.10;99.90;;;;;;5033195;28;20203;-80
2023/05/20 05:11:32;;;;;;;5.23;2.93;;;11.20;99.90;;;;;;5071376;27;20298;-78
2023/05/20 05:13:59;;;;;;;4.47;3.27;;;11.20;99.90;;;;;;5050699;27;20756;-78
2023/05/20 05:16:25;;;;;;;4.57;3.23;;;11.20;99.90;;;;;;5076114;27;20199;-78
2023/05/20 05:18:52;;;;;;;5.33;3.20;;;11.20;99.90;;;;;;5094929;27;20210;-80
2023/05/20 05:21:19;;;;;;;5.03;3.20;;;11.30;99.90;;;;;;5069664;27;20220;-78
2023/05/20 05:23:47;;;;;;;6.87;3.60;;;11.30;99.90;;;;;;5049218;28;20314;-80
2023/05/20 05:26:14;;;;;;;4.90;3.43;;;11.40;99.90;;;;;;5041412;28;20215;-80
2023/05/20 05:28:42;;;;;;;9.40;3.80;;;11.40;99.90;;;;;;5043125;28;20877;-78
2023/05/20 05:31:09;;;;;;;5.87;3.63;;;11.40;99.90;;;;;;5051855;28;20286;-78
2023/05/20 05:33:36;;;;;;;8.40;4.00;;;11.40;99.90;;;;;;5051232;28;20306;-77
2023/05/20 05:36:04;;;;;;;8.23;4.00;;;11.40;99.90;;;;;;5052321;28;20239;-78
2023/05/20 05:38:31;;;;;;;5.73;3.70;;;11.40;99.90;;;;;;5047527;28;20204;-80
2023/05/20 05:40:59;;;;;;;5.03;3.27;;;11.40;99.90;;;;;;5057639;28;20254;-78
2023/05/20 05:43:26;;;;;;;5.63;3.80;;;11.50;99.90;;;;;;5054167;28;20657;-79
2023/05/20 05:45:53;;;;;;;6.40;3.80;;;11.50;99.90;;;;;;5056138;28;20243;-80
2023/05/20 05:48:21;;;;;;;6.53;4.50;;;11.60;99.90;;;;;;5052319;28;20287;-79
2023/05/20 05:50:48;;;;;;;5.63;4.20;;;11.50;99.90;;;;;;5055339;28;20191;-78
2023/05/20 05:53:15;;;;;;;8.07;3.97;;;11.50;99.90;;;;;;5053445;28;20219;-80
2023/05/20 05:55:46;;;;;;;6.70;4.53;;;11.60;99.90;;;;;;5054166;28;20203;-80
2023/05/20 05:58:14;;;;;;;6.20;4.50;;;11.60;99.90;;;;;;5051212;28;20199;-80
2023/05/20 06:00:41;;;;;;;7.47;4.40;;;11.70;99.90;;;;;;5055403;28;20276;-78
2023/05/20 06:03:08;;;;;;;6.73;4.50;;;11.80;99.90;;;;;;5056331;28;20231;-78
2023/05/20 06:05:35;;;;;;;6.73;4.40;;;11.80;99.90;;;;;;5050005;28;20235;-78
2023/05/20 06:08:02;;;;;;;9.67;4.97;;;11.80;99.90;;;;;;5047952;28;20203;-79
2023/05/20 06:10:29;;;;;;;8.07;4.77;;;11.90;99.90;;;;;;5054418;28;20227;-78
2023/05/20 06:12:56;;;;;;;8.30;5.40;;;11.90;99.90;;;;;;5035918;28;20273;-80
2023/05/20 06:15:24;;;;;;;8.37;5.07;;;12.00;99.90;;;;;;5042072;28;20224;-80
2023/05/20 06:17:51;;;;;;;7.03;4.83;;;12.00;99.90;;;;;;5055012;27;20207;-78
2023/05/20 06:20:18;;;;;;;6.20;4.60;;;12.10;99.90;;;;;;5048679;28;20263;-79
2023/05/20 06:22:45;;;;;;;6.93;4.93;;;12.10;99.90;;;;;;5052110;28;20876;-80
2023/05/20 06:25:13;;;;;;;6.60;4.63;;;12.30;99.90;;;;;;5054620;28;20211;-79
2023/05/20 06:27:40;;;;;;;7.93;5.27;;;12.70;99.90;;;;;;5047033;28;20235;-80
2023/05/20 06:30:08;;;;;;;7.57;4.83;;;12.60;99.90;;;;;;5046246;28;20244;-79
2023/05/20 06:32:36;;;;;;;7.27;5.20;;;12.60;99.90;;;;;;5046181;28;20219;-79
2023/05/20 06:35:04;;;;;;;7.40;5.00;;;12.60;99.90;;;;;;5043587;28;20252;-79
2023/05/20 06:37:31;;;;;;;6.83;4.77;;;12.60;99.90;;;;;;5046507;28;20294;-79
2023/05/20 06:39:58;;;;;;;6.53;4.83;;;12.60;99.90;;;;;;5050207;28;20610;-78
2023/05/20 06:42:25;;;;;;;6.73;5.03;;;12.70;99.90;;;;;;5033764;28;20243;-78
2023/05/20 06:44:52;;;;;;;7.60;5.03;;;12.70;99.90;;;;;;5032743;28;20227;-78
2023/05/20 06:47:20;;;;;;;8.57;5.00;;;12.80;99.90;;;;;;5072832;27;20252;-78
2023/05/20 06:49:48;;;;;;;7.30;4.93;;;12.90;99.90;;;;;;5051576;28;20256;-79
2023/05/20 06:52:15;;;;;;;7.80;4.90;;;12.90;99.90;;;;;;5040925;28;20670;-80
2023/05/20 06:54:43;;;;;;;6.63;4.87;;;13.00;99.90;;;;;;5046204;28;20280;-80
2023/05/20 06:57:10;;;;;;;8.33;5.27;;;13.00;99.90;;;;;;5041078;28;20203;-79
2023/05/20 06:59:37;;;;;;;8.87;5.40;;;12.90;99.90;;;;;;5045319;28;20253;-76
2023/05/20 07:02:04;;;;;;;6.43;5.27;;;12.90;99.90;;;;;;5046019;28;20226;-80
2023/05/20 07:04:31;;;;;;;10.07;5.20;;;12.90;99.90;;;;;;5044626;28;20228;-77
2023/05/20 07:06:59;;;;;;;14.10;5.20;;;12.70;99.90;;;;;;5043763;28;20213;-77
2023/05/20 07:09:26;;;;;;;7.63;5.17;;;12.70;99.90;;;;;;5050436;27;20222;-80
2023/05/20 07:11:53;;;;;;;8.77;5.13;;;12.70;99.90;;;;;;5061489;27;20210;-79
2023/05/20 07:14:19;;;;;;;12.40;5.80;;;12.70;99.90;;;;;;5053151;28;20615;-77
2023/05/20 07:16:46;;;;;;;7.63;5.33;;;12.60;99.90;;;;;;5051915;28;20640;-79
2023/05/20 07:19:13;;;;;;;10.03;5.47;;;12.70;99.90;;;;;;5052309;28;20561;-80
2023/05/20 07:21:40;;;;;;;8.13;5.33;;;12.70;99.90;;;;;;5053324;28;20591;-80
2023/05/20 07:24:08;;;;;;;8.97;5.33;;;12.80;99.90;;;;;;5053335;28;20595;-79
2023/05/20 07:26:35;;;;;;;8.40;4.90;;;12.90;99.90;;;;;;5037410;28;20208;-79
2023/05/20 07:29:03;;;;;;;9.03;5.60;;;12.90;99.90;;;;;;5041378;28;20275;-78
2023/05/20 07:31:30;;;;;;;7.97;5.10;;;13.20;99.90;;;;;;5039204;28;20200;-79
2023/05/20 07:33:57;;;;;;;9.70;5.40;;;13.30;99.90;;;;;;5048241;28;20219;-80
2023/05/20 07:36:28;;;;;;;7.53;5.67;;;13.40;99.90;;;;;;5057189;28;20203;-78
2023/05/20 07:38:55;;;;;;;6.70;5.43;;;13.50;99.90;;;;;;5056017;28;20290;-78
2023/05/20 07:41:23;;;;;;;8.00;5.03;;;13.80;99.90;;;;;;5043130;28;20223;-79
2023/05/20 07:43:50;;;;;;;6.23;5.20;;;14.00;99.90;;;;;;5046308;27;20692;-78
2023/05/20 07:46:17;;;;;;;7.70;4.97;;;14.10;99.90;;;;;;5049626;28;20209;-80
2023/05/20 07:48:44;;;;;;;8.00;5.87;;;14.20;99.90;;;;;;5050822;28;20275;-81
2023/05/20 07:51:11;;;;;;;8.30;4.90;;;14.20;99.90;;;;;;5053571;27;20199;-78
2023/05/20 07:53:38;;;;;;;9.47;6.60;;;14.00;99.90;;;;;;5053787;28;20317;-81
2023/05/20 07:56:05;;;;;;;10.67;6.13;;;14.10;99.90;;;;;;5079592;27;20631;-78
2023/05/20 07:58:33;;;;;;;7.80;5.50;;;14.20;99.90;;;;;;5045545;28;20207;-81
2023/05/20 08:01:00;;;;;;;9.47;5.90;;;14.20;99.90;;;;;;5052955;28;20671;-80
2023/05/20 08:03:27;;;;;;;8.87;5.70;;;14.20;99.90;;;;;;5048607;28;20219;-77
2023/05/20 08:05:54;;;;;;;8.50;5.83;;;14.20;99.90;;;;;;5051875;28;20274;-80
2023/05/20 08:08:21;;;;;;;8.40;5.43;;;14.20;99.90;;;;;;5049525;28;20203;-80
2023/05/20 08:10:48;;;;;;;10.60;5.93;;;14.10;99.90;;;;;;5048813;27;20708;-80
2023/05/20 08:13:14;;;;;;;7.40;5.67;;;14.00;99.90;;;;;;5039569;28;20655;-80
2023/05/20 08:15:43;;;;;;;7.57;5.20;;;14.00;99.90;;;;;;5049191;28;20647;-79
2023/05/20 08:18:09;;;;;;;9.70;5.60;;;13.90;99.90;;;;;;5044023;28;20199;-79
2023/05/20 08:20:36;;;;;;;7.97;5.50;;;14.00;99.90;;;;;;5043740;28;20227;-79
2023/05/20 08:23:03;;;;;;;9.77;5.77;;;13.90;99.90;;;;;;5051908;27;20220;-79
2023/05/20 08:25:30;;;;;;;9.77;6.33;;;14.10;99.90;;;;;;5046824;27;20203;-79
2023/05/20 08:27:57;;;;;;;10.43;6.53;;;14.10;99.90;;;;;;5037366;28;20212;-78
2023/05/20 08:30:23;;;;;;;8.03;6.03;;;14.10;99.90;;;;;;5066305;27;20280;-79
2023/05/20 08:32:52;;;;;;;11.23;6.87;;;14.20;99.90;;;;;;5058873;27;20255;-80
2023/05/20 08:35:18;;;;;;;8.73;6.03;;;14.20;99.90;;;;;;5070128;27;20214;-77
2023/05/20 08:37:45;;;;;;;9.43;6.60;;;14.20;99.90;;;;;;5067757;27;20285;-79
2023/05/20 08:40:13;;;;;;;9.90;6.57;;;14.20;99.90;;;;;;5054770;27;20290;-80
2023/05/20 08:42:42;;;;;;;9.47;7.03;;;14.10;99.90;;;;;;5041810;28;20234;-79
2023/05/20 08:45:12;;;;;;;13.90;7.40;;;14.00;99.90;;;;;;5070077;27;20216;-78
2023/05/20 08:47:41;;;;;;;10.70;7.07;;;14.00;99.90;;;;;;5038445;28;20229;-80
2023/05/20 08:50:12;;;;;;;11.50;7.33;;;14.10;99.90;;;;;;5039784;28;20210;-78
2023/05/20 08:52:43;;;;;;;11.23;7.60;;;14.10;99.90;;;;;;5042880;28;20206;-79
2023/05/20 08:55:14;;;;;;;12.90;7.60;;;14.10;99.90;;;;;;5036612;28;20207;-78
2023/05/20 08:57:44;;;;;;;13.10;7.47;;;14.00;99.90;;;;;;5071770;27;20248;-77
2023/05/20 09:00:15;;;;;;;10.87;6.70;;;14.00;99.90;;;;;;5040674;28;20223;-80
2023/05/20 09:02:43;;;;;;;10.23;7.20;;;14.10;99.90;;;;;;5044409;28;20223;-80
2023/05/20 09:05:12;;;;;;;10.17;6.63;;;14.10;99.90;;;;;;5048820;28;20310;-80
2023/05/20 09:07:41;;;;;;;9.47;6.90;;;14.10;99.90;;;;;;5046344;27;20678;-78
2023/05/20 09:10:09;;;;;;;11.07;6.93;;;14.10;99.90;;;;;;5044184;28;20212;-78
2023/05/20 09:12:36;;;;;;;12.53;7.37;;;14.10;99.90;;;;;;5040614;27;20656;-79
2023/05/20 09:15:03;;;;;;;10.03;6.63;;;14.20;99.90;;;;;;5041134;27;20211;-78
2023/05/20 09:17:30;;;;;;;9.67;6.70;;;14.40;99.90;;;;;;5042160;28;20215;-79
2023/05/20 09:19:57;;;;;;;9.03;6.20;;;14.50;99.90;;;;;;5040534;28;20637;-81
2023/05/20 09:22:26;;;;;;;9.10;5.07;;;14.80;99.90;;;;;;5041816;28;20258;-79
2023/05/20 09:24:54;;;;;;;8.87;5.10;;;14.90;99.90;;;;;;5047533;28;20223;-79
2023/05/20 09:27:22;;;;;;;9.07;5.03;;;15.00;99.90;;;;;;5050475;27;20204;-79
2023/05/20 09:29:49;;;;;;;7.03;5.30;;;15.30;99.90;;;;;;5048751;27;20287;-79
2023/05/20 09:32:16;;;;;;;7.33;4.33;;;15.20;99.90;;;;;;5049119;27;20289;-80
2023/05/20 09:34:44;;;;;;;7.40;4.70;;;15.40;99.90;;;;;;5047170;28;20597;-80
2023/05/20 09:37:12;;;;;;;6.57;4.63;;;15.20;99.90;;;;;;5046637;28;20286;-81
2023/05/20 09:39:50;;;;;;;7.50;5.37;;;15.60;99.90;;;;;;5046959;28;20204;-80
2023/05/20 09:42:22;;;;;;;6.57;5.20;;;16.00;99.90;;;;;;5041906;28;20215;-80
2023/05/20 09:44:51;;;;;;;6.60;4.57;;;15.60;99.90;;;;;;5050067;28;20226;-80
2023/05/20 09:47:19;;;;;;;7.20;4.80;;;15.70;99.90;;;;;;5039684;28;20210;-80
2023/05/20 09:49:47;;;;;;;6.90;4.40;;;15.70;99.90;;;;;;5044030;28;20203;-79
2023/05/20 09:52:15;;;;;;;6.77;4.60;;;15.70;99.90;;;;;;5049652;27;20199;-79
2023/05/20 09:54:44;;;;;;;7.40;5.07;;;15.80;99.90;;;;;;5049966;28;20231;-78
2023/05/20 09:57:12;;;;;;;6.67;4.43;;;15.70;99.90;;;;;;5049343;28;20199;-79
2023/05/20 09:59:40;;;;;;;7.35;4.72;;;15.60;99.90;;;;;;5042829;28;20231;-79
2023/05/20 10:02:07;;;;;;;5.45;4.50;;;15.60;99.90;;;;;;5042653;28;20604;-78
2023/05/20 10:04:37;;;;;;;6.72;4.55;;;15.60;99.90;;;;;;5052591;28;20310;-79
2023/05/20 10:07:27;;;;;;;6.72;4.78;;;15.70;99.90;;;;;;5048394;28;20210;-79
2023/05/20 10:10:07;;;;;;;5.75;4.43;;;15.60;99.90;;;;;;5046408;28;20615;-78
2023/05/20 10:12:39;;;;;;;5.43;4.35;;;15.60;99.90;;;;;;5036614;27;20196;-79
2023/05/20 10:15:17;;;;;;;7.53;4.82;;;15.80;99.90;;;;;;5043177;28;20204;-78
2023/05/20 10:17:52;;;;;;;4.57;4.05;;;15.70;99.90;;;;;;5047124;27;20206;-79
2023/05/20 10:20:18;;;;;;;7.10;4.85;;;15.70;99.90;;;;;;5049423;28;20211;-79
2023/05/20 10:22:56;;;;;;;5.88;4.35;;;15.70;99.90;;;;;;5051497;28;20218;-79
2023/05/20 10:25:27;;;;;;;7.00;4.55;;;15.80;99.90;;;;;;5049078;28;20612;-80
2023/05/20 10:28:06;;;;;;;4.72;4.03;;;15.80;99.90;;;;;;5049948;28;20199;-79
2023/05/20 10:30:34;;;;;;;5.93;4.40;;;15.70;99.90;;;;;;5052828;28;20207;-79
2023/05/20 10:33:04;;;;;;;6.77;4.90;;;15.50;99.90;;;;;;5047590;27;20215;-79
2023/05/20 10:35:31;;;;;;;9.07;5.13;;;15.60;99.90;;;;;;5045864;27;20249;-79
2023/05/20 10:38:09;;;;;;;8.50;4.80;;;15.80;99.90;;;;;;5040329;27;20246;-78
2023/05/20 10:40:37;;;;;;;9.20;4.70;;;15.90;99.90;;;;;;5048831;27;20624;-79
2023/05/20 10:43:11;;;;;;;5.38;4.05;;;16.20;99.90;;;;;;5042626;28;20707;-79
2023/05/20 10:45:49;;;;;;;7.57;4.43;;;16.30;99.90;;;;;;5045977;27;20195;-78
2023/05/20 10:48:24;;;;;;;5.93;4.80;;;16.20;99.90;;;;;;5051153;28;20218;-78
2023/05/20 10:50:55;;;;;;;7.55;4.65;;;16.30;99.90;;;;;;5050056;28;20205;-79
2023/05/20 10:53:23;;;;;;;8.45;5.15;;;16.20;99.90;;;;;;5048836;28;20208;-77
2023/05/20 10:55:53;;;;;;;7.88;4.65;;;16.10;99.90;;;;;;5043821;28;20620;-79
2023/05/20 10:58:22;;;;;;;6.97;4.95;;;15.90;99.90;;;;;;5043002;27;20202;-79
2023/05/20 11:00:49;;;;;;;7.60;4.93;;;15.80;99.90;;;;;;5044996;28;20675;-79
2023/05/20 11:03:19;;;;;;;6.20;4.88;;;15.60;99.90;;;;;;5033582;28;20635;-79
2023/05/20 11:05:46;;;;;;;6.38;5.00;;;15.80;99.90;;;;;;5032094;28;20706;-79
2023/05/20 11:08:13;;;;;;;6.68;5.43;;;15.90;99.90;;;;;;5033557;28;20200;-79
2023/05/20 11:10:41;;;;;;;6.65;4.78;;;15.90;99.90;;;;;;5034136;28;20204;-80
2023/05/20 11:13:12;;;;;;;7.38;4.65;;;15.90;99.90;;;;;;5034024;28;20764;-79
2023/05/20 11:15:40;;;;;;;7.82;4.85;;;15.90;99.90;;;;;;5030012;28;20211;-78
2023/05/20 11:18:06;;;;;;;6.72;4.55;;;15.90;99.90;;;;;;5033881;28;20216;-78
2023/05/20 11:20:34;;;;;;;8.38;5.22;;;16.00;99.90;;;;;;5028634;28;20199;-77
2023/05/20 11:23:02;;;;;;;6.15;4.60;;;15.80;99.90;;;;;;5031300;28;20244;-77
2023/05/20 11:25:28;;;;;;;7.10;4.63;;;16.00;99.90;;;;;;5031056;28;20204;-77
2023/05/20 11:27:55;;;;;;;8.55;4.97;;;15.70;99.90;;;;;;5040519;28;20282;-78
2023/05/20 11:30:24;;;;;;;6.40;5.10;;;15.60;99.90;;;;;;5047978;28;20207;-78
2023/05/20 11:32:58;;;;;;;6.45;4.97;;;15.60;99.90;;;;;;5043425;27;20195;-78
2023/05/20 11:35:27;;;;;;;6.25;4.57;;;15.70;99.90;;;;;;5043317;28;20651;-77
2023/05/20 11:37:56;;;;;;;8.00;4.88;;;15.70;99.90;;;;;;5034065;28;20545;-78
2023/05/20 11:40:24;;;;;;;6.10;4.45;;;15.80;99.90;;;;;;5040838;28;20237;-78
2023/05/20 11:42:56;;;;;;;6.30;4.63;;;15.80;99.90;;;;;;5041636;28;20222;-78
2023/05/20 11:45:26;;;;;;;6.80;4.85;;;15.70;99.90;;;;;;5031232;28;20664;-77
2023/05/20 11:48:00;;;;;;;6.75;4.40;;;15.70;99.90;;;;;;5041409;28;20282;-78
2023/05/20 11:50:27;;;;;;;8.80;4.65;;;15.70;99.90;;;;;;5030810;28;20468;-78
2023/05/20 11:52:58;;;;;;;9.43;5.00;;;15.70;99.90;;;;;;5038755;27;20938;-78
2023/05/20 11:55:25;;;;;;;6.47;4.78;;;15.80;99.90;;;;;;5033084;28;20207;-77
2023/05/20 11:57:52;;;;;;;7.05;4.57;;;15.90;99.90;;;;;;5047072;28;20674;-78
2023/05/20 12:00:20;;;;;;;9.80;5.53;;;16.10;99.90;;;;;;5048501;28;20214;-80
2023/05/20 12:02:48;;;;;;;6.65;4.68;;;16.10;99.90;;;;;;5033602;28;20226;-79
2023/05/20 12:05:16;;;;;;;10.05;5.10;;;16.00;99.90;;;;;;5042473;28;20303;-78
2023/05/20 12:07:44;;;;;;;7.18;5.38;;;15.80;99.90;;;;;;5039742;28;20290;-79
2023/05/20 12:10:12;;;;;;;6.67;4.87;;;15.70;99.90;;;;;;5069713;27;20207;-79
2023/05/20 12:12:39;;;;;;;9.32;5.30;;;15.60;99.90;;;;;;5037765;27;20206;-79
2023/05/20 12:15:07;;;;;;;6.93;4.40;;;15.60;99.90;;;;;;5038644;28;20211;-78
2023/05/20 12:17:45;;;;;;;7.40;4.65;;;15.50;99.90;;;;;;5041798;28;20200;-79
2023/05/20 12:20:15;;;;;;;8.65;5.35;;;15.50;99.90;;;;;;5045296;28;20207;-79
2023/05/20 12:22:42;;;;;;;8.43;5.25;;;15.50;99.90;;;;;;5041824;28;20216;-79
2023/05/20 12:25:11;;;;;;;7.43;5.27;;;15.60;99.90;;;;;;5035387;28;20215;-78
2023/05/20 12:27:38;;;;;;;7.97;5.35;;;15.50;99.90;;;;;;5055276;27;20199;-78
2023/05/20 12:30:06;;;;;;;8.48;5.30;;;15.60;99.90;;;;;;5042452;28;20200;-78
2023/05/20 12:32:34;;;;;;;6.60;4.90;;;15.50;99.90;;;;;;5036984;28;20279;-79
2023/05/20 12:35:00;;;;;;;8.43;5.03;;;15.70;99.90;;;;;;5049470;27;20302;-79
2023/05/20 12:37:29;;;;;;;10.18;4.95;;;15.60;99.90;;;;;;5039659;27;20203;-77
2023/05/20 12:39:55;;;;;;;8.60;5.30;;;15.50;99.90;;;;;;5033097;27;20675;-78
2023/05/20 12:42:22;;;;;;;7.38;4.80;;;15.80;99.90;;;;;;5037967;28;20211;-79
2023/05/20 12:44:49;;;;;;;7.07;4.90;;;16.00;99.90;;;;;;5041454;28;20219;-78
2023/05/20 12:47:16;;;;;;;9.50;5.57;;;15.80;99.90;;;;;;5042556;28;20195;-77
2023/05/20 12:49:43;;;;;;;8.45;4.50;;;15.80;99.90;;;;;;5041236;28;20199;-78
2023/05/20 12:52:10;;;;;;;9.43;5.03;;;15.90;99.90;;;;;;5037448;28;20208;-78